Wetterdaten: Woche 15.05.06 - 21.05.06 (KW20)
Datum Zeit Temperatur Luftfeuchte Luftdruck Windrichtung Wind
15.05.2006 00:00 9,6 C 97 % 1021 hPa N 0,0 km/h (0 Bft)
15.05.2006 01:00 9,0 C 97 % 1021 hPa N 0,0 km/h (0 Bft)
15.05.2006 02:00 8,4 C 98 % 1020 hPa N 0,0 km/h (0 Bft)
15.05.2006 03:00 7,8 C 99 % 1020 hPa N 0,0 km/h (0 Bft)
15.05.2006 04:00 7,3 C 99 % 1020 hPa N 0,0 km/h (0 Bft)
15.05.2006 05:00 6,8 C 99 % 1020 hPa N 0,0 km/h (0 Bft)
15.05.2006 06:00 6,7 C 100 % 1020 hPa N 0,2 km/h (0 Bft)
15.05.2006 07:00 7,2 C 100 % 1019 hPa N 0,1 km/h (0 Bft)
15.05.2006 08:00 9,0 C 100 % 1020 hPa N-NW 0,9 km/h (0 Bft)
15.05.2006 09:00 11,6 C 92 % 1019 hPa N 0,0 km/h (0 Bft)
15.05.2006 10:00 13,5 C 77 % 1019 hPa S-SO 1,2 km/h (1 Bft)
15.05.2006 13:00 20,0 C 42 % 1019 hPa S-SW 12,1 km/h (2 Bft)
15.05.2006 14:00 21,2 C 39 % 1018 hPa S-SW 13,2 km/h (3 Bft)
15.05.2006 15:00 21,5 C 37 % 1018 hPa S-SW 18,4 km/h (3 Bft)
15.05.2006 16:00 21,1 C 39 % 1017 hPa SW 14,7 km/h (3 Bft)
15.05.2006 17:00 21,6 C 38 % 1017 hPa SW 15,5 km/h (3 Bft)
15.05.2006 18:00 20,5 C 42 % 1017 hPa W-SW 9,1 km/h (2 Bft)
15.05.2006 19:00 19,5 C 48 % 1017 hPa W-SW 5,8 km/h (2 Bft)
15.05.2006 20:00 18,4 C 54 % 1017 hPa S-SW 2,6 km/h (1 Bft)
15.05.2006 21:00 16,9 C 60 % 1017 hPa W-SW 2,3 km/h (1 Bft)
15.05.2006 22:00 16,9 C 53 % 1017 hPa SW 8,1 km/h (2 Bft)
15.05.2006 23:00 17,0 C 51 % 1017 hPa W-SW 9,3 km/h (2 Bft)
16.05.2006 00:00 16,5 C 55 % 1017 hPa S-SW 5,3 km/h (1 Bft)
16.05.2006 01:00 16,5 C 59 % 1018 hPa W-SW 6,5 km/h (2 Bft)
16.05.2006 02:00 15,7 C 72 % 1018 hPa W 6,3 km/h (2 Bft)
16.05.2006 03:00 14,9 C 80 % 1018 hPa SW 3,3 km/h (1 Bft)
16.05.2006 04:00 14,3 C 86 % 1018 hPa NW 0,6 km/h (0 Bft)
16.05.2006 05:00 13,6 C 90 % 1018 hPa N 0,0 km/h (0 Bft)
16.05.2006 06:00 13,7 C 91 % 1018 hPa S-SW 7,1 km/h (2 Bft)
16.05.2006 07:00 14,5 C 86 % 1018 hPa S-SW 14,1 km/h (3 Bft)
16.05.2006 08:00 15,6 C 78 % 1019 hPa SW 12,6 km/h (3 Bft)
16.05.2006 09:00 16,0 C 77 % 1019 hPa S-SW 11,4 km/h (2 Bft)
16.05.2006 10:00 18,5 C 64 % 1018 hPa S-SW 15,2 km/h (3 Bft)
16.05.2006 11:00 20,5 C 53 % 1018 hPa S-SW 17,6 km/h (3 Bft)
16.05.2006 12:00 21,8 C 51 % 1018 hPa S-SW 16,3 km/h (3 Bft)
16.05.2006 13:00 22,4 C 50 % 1017 hPa SW 20,1 km/h (4 Bft)
16.05.2006 14:00 18,2 C 69 % 1018 hPa W-SW 21,2 km/h (4 Bft)
16.05.2006 15:00 17,0 C 84 % 1018 hPa W-SW 11,6 km/h (2 Bft)
16.05.2006 16:00 16,3 C 79 % 1018 hPa SW 11,7 km/h (2 Bft)
16.05.2006 17:00 15,2 C 84 % 1018 hPa S-SW 15,9 km/h (3 Bft)
16.05.2006 18:00 14,8 C 89 % 1018 hPa S-SW 15,4 km/h (3 Bft)
16.05.2006 19:00 15,2 C 88 % 1018 hPa S-SW 11,3 km/h (2 Bft)
16.05.2006 20:00 15,0 C 91 % 1018 hPa S-SW 9,8 km/h (2 Bft)
16.05.2006 21:00 14,6 C 93 % 1018 hPa S-SW 12,5 km/h (3 Bft)
16.05.2006 22:00 14,4 C 94 % 1018 hPa S-SW 12,3 km/h (3 Bft)
16.05.2006 23:00 14,4 C 91 % 1019 hPa S-SW 10,4 km/h (2 Bft)
17.05.2006 00:00 14,1 C 95 % 1018 hPa S-SW 13,5 km/h (3 Bft)
17.05.2006 01:00 14,0 C 96 % 1018 hPa S-SW 11,7 km/h (2 Bft)
17.05.2006 02:00 14,1 C 96 % 1019 hPa S-SW 10,0 km/h (2 Bft)
17.05.2006 03:00 13,8 C 91 % 1019 hPa W-SW 8,7 km/h (2 Bft)
17.05.2006 04:00 12,2 C 94 % 1020 hPa W 9,2 km/h (2 Bft)
17.05.2006 05:00 11,7 C 97 % 1020 hPa S 1,3 km/h (1 Bft)
17.05.2006 06:00 11,7 C 98 % 1020 hPa N 0,0 km/h (0 Bft)
17.05.2006 07:00 13,2 C 100 % 1020 hPa S 1,6 km/h (1 Bft)
17.05.2006 08:00 14,8 C 99 % 1021 hPa W-SW 2,0 km/h (1 Bft)
17.05.2006 09:00 16,2 C 84 % 1021 hPa SW 6,3 km/h (2 Bft)
17.05.2006 10:00 17,7 C 70 % 1021 hPa SW 12,1 km/h (2 Bft)
17.05.2006 11:00 19,3 C 60 % 1021 hPa W-SW 12,6 km/h (3 Bft)
17.05.2006 12:00 20,2 C 54 % 1021 hPa W-SW 14,8 km/h (3 Bft)
17.05.2006 13:00 20,4 C 52 % 1020 hPa W-SW 11,6 km/h (2 Bft)
17.05.2006 14:00 21,8 C 46 % 1020 hPa W-SW 12,9 km/h (3 Bft)
17.05.2006 15:00 21,8 C 43 % 1020 hPa W-SW 10,6 km/h (2 Bft)
17.05.2006 16:00 22,5 C 43 % 1019 hPa W 9,9 km/h (2 Bft)
17.05.2006 17:00 22,7 C 42 % 1019 hPa W-SW 9,6 km/h (2 Bft)
17.05.2006 18:00 21,6 C 44 % 1019 hPa W-SW 11,1 km/h (2 Bft)
17.05.2006 19:00 20,9 C 46 % 1019 hPa W-SW 8,7 km/h (2 Bft)
17.05.2006 20:00 19,2 C 52 % 1019 hPa W-SW 5,6 km/h (1 Bft)
17.05.2006 21:00 17,3 C 61 % 1019 hPa W-SW 1,2 km/h (1 Bft)
17.05.2006 22:00 15,8 C 69 % 1019 hPa N 0,0 km/h (0 Bft)
17.05.2006 23:00 14,7 C 74 % 1019 hPa N 0,0 km/h (0 Bft)
18.05.2006 00:00 14,6 C 77 % 1018 hPa N 0,0 km/h (0 Bft)
18.05.2006 01:00 14,5 C 79 % 1018 hPa N 0,0 km/h (0 Bft)
18.05.2006 02:00 14,0 C 80 % 1017 hPa N 0,0 km/h (0 Bft)
18.05.2006 03:00 13,4 C 83 % 1017 hPa N 0,0 km/h (0 Bft)
18.05.2006 04:00 13,3 C 85 % 1016 hPa N 0,0 km/h (0 Bft)
18.05.2006 05:00 13,1 C 88 % 1015 hPa N 0,0 km/h (0 Bft)
18.05.2006 06:00 13,2 C 91 % 1015 hPa SO 0,2 km/h (0 Bft)
18.05.2006 07:00 14,7 C 85 % 1015 hPa S 6,5 km/h (2 Bft)
18.05.2006 08:00 16,7 C 64 % 1014 hPa S-SW 16,8 km/h (3 Bft)
18.05.2006 09:00 18,0 C 63 % 1015 hPa S-SW 15,3 km/h (3 Bft)
18.05.2006 10:00 18,2 C 66 % 1017 hPa W-SW 16,5 km/h (3 Bft)
18.05.2006 11:00 17,0 C 82 % 1017 hPa S-SW 13,3 km/h (3 Bft)
18.05.2006 12:00 16,1 C 95 % 1017 hPa S-SW 14,6 km/h (3 Bft)
18.05.2006 13:00 16,0 C 99 % 1017 hPa S-SW 15,5 km/h (3 Bft)
18.05.2006 14:00 16,4 C 99 % 1017 hPa S-SW 18,6 km/h (3 Bft)
18.05.2006 15:00 16,2 C 99 % 1017 hPa S-SW 18,7 km/h (3 Bft)
18.05.2006 16:00 16,0 C 98 % 1016 hPa S-SW 16,5 km/h (3 Bft)
18.05.2006 17:00 15,9 C 97 % 1015 hPa S-SW 17,7 km/h (3 Bft)
18.05.2006 18:00 15,6 C 96 % 1015 hPa SW 16,5 km/h (3 Bft)
18.05.2006 19:00 15,2 C 96 % 1016 hPa W-SW 13,9 km/h (3 Bft)
18.05.2006 20:00 14,4 C 96 % 1016 hPa W 6,3 km/h (2 Bft)
18.05.2006 21:00 13,6 C 96 % 1016 hPa W-SW 6,4 km/h (2 Bft)
18.05.2006 22:00 13,3 C 99 % 1016 hPa SW 12,1 km/h (2 Bft)
18.05.2006 23:00 12,4 C 98 % 1016 hPa W-SW 11,0 km/h (2 Bft)
19.05.2006 00:00 11,4 C 96 % 1016 hPa W-SW 12,7 km/h (3 Bft)
19.05.2006 01:00 11,1 C 97 % 1016 hPa SW 13,0 km/h (3 Bft)
19.05.2006 02:00 10,5 C 96 % 1016 hPa W-SW 10,3 km/h (2 Bft)
19.05.2006 03:00 10,2 C 95 % 1016 hPa W-SW 13,4 km/h (3 Bft)
19.05.2006 04:00 10,0 C 92 % 1016 hPa SW 13,0 km/h (3 Bft)
19.05.2006 05:00 9,4 C 93 % 1016 hPa S-SW 12,0 km/h (2 Bft)
19.05.2006 06:00 9,4 C 98 % 1016 hPa S-SW 13,1 km/h (3 Bft)
19.05.2006 07:00 11,1 C 92 % 1016 hPa S-SW 18,5 km/h (3 Bft)
19.05.2006 08:00 12,4 C 75 % 1016 hPa SW 22,4 km/h (4 Bft)
19.05.2006 09:00 13,5 C 66 % 1016 hPa W-SW 21,3 km/h (4 Bft)
19.05.2006 10:00 14,5 C 60 % 1016 hPa S-SW 22,0 km/h (4 Bft)
19.05.2006 11:00 15,2 C 53 % 1016 hPa W-SW 24,2 km/h (4 Bft)
19.05.2006 12:00 15,9 C 46 % 1016 hPa SW 27,9 km/h (4 Bft)
19.05.2006 13:00 17,3 C 43 % 1016 hPa S-SW 24,8 km/h (4 Bft)
19.05.2006 14:00 18,0 C 38 % 1015 hPa W-SW 26,9 km/h (4 Bft)
19.05.2006 15:00 18,9 C 37 % 1014 hPa W 22,3 km/h (4 Bft)
19.05.2006 16:00 18,5 C 38 % 1014 hPa W 20,8 km/h (4 Bft)
19.05.2006 17:00 18,4 C 36 % 1014 hPa W-SW 24,8 km/h (4 Bft)
19.05.2006 18:00 17,4 C 36 % 1014 hPa W 17,8 km/h (3 Bft)
19.05.2006 19:00 16,3 C 38 % 1013 hPa W 11,5 km/h (2 Bft)
19.05.2006 20:00 14,8 C 43 % 1013 hPa W-SW 10,2 km/h (2 Bft)
19.05.2006 21:00 13,7 C 49 % 1014 hPa W 12,3 km/h (3 Bft)
19.05.2006 22:00 13,0 C 54 % 1014 hPa W-SW 9,2 km/h (2 Bft)
19.05.2006 23:00 12,7 C 57 % 1014 hPa W-SW 6,9 km/h (2 Bft)
20.05.2006 00:00 12,1 C 62 % 1014 hPa S-SW 5,2 km/h (1 Bft)
20.05.2006 01:00 11,7 C 58 % 1014 hPa W-SW 9,6 km/h (2 Bft)
20.05.2006 02:00 11,5 C 57 % 1013 hPa S-SW 9,8 km/h (2 Bft)
20.05.2006 03:00 10,8 C 62 % 1013 hPa S-SW 9,6 km/h (2 Bft)
20.05.2006 04:00 10,5 C 67 % 1012 hPa S-SW 10,4 km/h (2 Bft)
20.05.2006 05:00 10,4 C 70 % 1011 hPa S-SW 3,9 km/h (1 Bft)
20.05.2006 06:00 10,5 C 71 % 1010 hPa S-SW 5,1 km/h (1 Bft)
20.05.2006 07:00 11,3 C 70 % 1009 hPa S 2,0 km/h (1 Bft)
20.05.2006 08:00 12,3 C 70 % 1009 hPa S-SW 14,2 km/h (3 Bft)
20.05.2006 09:00 13,5 C 56 % 1009 hPa S-SW 18,4 km/h (3 Bft)
20.05.2006 10:00 14,2 C 52 % 1008 hPa S-SW 20,6 km/h (4 Bft)
20.05.2006 11:00 14,1 C 51 % 1007 hPa SW 23,0 km/h (4 Bft)
20.05.2006 12:00 14,5 C 52 % 1007 hPa SW 26,7 km/h (4 Bft)
20.05.2006 13:00 14,5 C 54 % 1006 hPa W-SW 24,4 km/h (4 Bft)
20.05.2006 14:00 12,9 C 70 % 1006 hPa S-SW 20,0 km/h (4 Bft)
20.05.2006 15:00 12,8 C 76 % 1006 hPa S-SW 22,7 km/h (4 Bft)
20.05.2006 16:00 14,0 C 74 % 1005 hPa SW 23,6 km/h (4 Bft)
20.05.2006 17:00 15,4 C 64 % 1005 hPa S-SW 26,3 km/h (4 Bft)
20.05.2006 18:00 15,2 C 63 % 1005 hPa W-SW 27,3 km/h (4 Bft)
20.05.2006 19:00 14,5 C 61 % 1006 hPa W-SW 30,5 km/h (5 Bft)
20.05.2006 20:00 13,1 C 68 % 1006 hPa W-SW 23,4 km/h (4 Bft)
20.05.2006 21:00 12,7 C 61 % 1007 hPa W-SW 20,3 km/h (4 Bft)
20.05.2006 22:00 12,3 C 57 % 1008 hPa S-SW 16,9 km/h (3 Bft)
20.05.2006 23:00 11,9 C 58 % 1008 hPa S-SW 15,7 km/h (3 Bft)
21.05.2006 00:00 11,4 C 62 % 1009 hPa S-SW 14,1 km/h (3 Bft)
21.05.2006 01:00 11,6 C 61 % 1009 hPa W-SW 14,2 km/h (3 Bft)
21.05.2006 02:00 11,5 C 65 % 1009 hPa S-SW 13,9 km/h (3 Bft)
21.05.2006 03:00 11,5 C 67 % 1009 hPa W-SW 16,5 km/h (3 Bft)
21.05.2006 04:00 11,3 C 67 % 1009 hPa W-SW 15,1 km/h (3 Bft)
21.05.2006 05:00 11,1 C 69 % 1009 hPa W-SW 16,2 km/h (3 Bft)
21.05.2006 06:00 11,1 C 69 % 1009 hPa W-SW 15,1 km/h (3 Bft)
21.05.2006 07:00 11,1 C 68 % 1010 hPa SW 14,4 km/h (3 Bft)
21.05.2006 08:00 11,3 C 68 % 1011 hPa S-SW 15,3 km/h (3 Bft)
21.05.2006 09:00 10,7 C 79 % 1011 hPa S-SW 12,5 km/h (3 Bft)
21.05.2006 10:00 10,4 C 83 % 1012 hPa SW 15,0 km/h (3 Bft)
21.05.2006 11:00 11,3 C 77 % 1012 hPa SW 16,1 km/h (3 Bft)
21.05.2006 12:00 12,4 C 69 % 1012 hPa S-SW 17,2 km/h (3 Bft)
21.05.2006 13:00 13,4 C 66 % 1011 hPa S-SW 19,2 km/h (3 Bft)
21.05.2006 14:00 14,1 C 59 % 1011 hPa W-SW 15,1 km/h (3 Bft)
21.05.2006 15:00 15,9 C 53 % 1011 hPa SW 15,3 km/h (3 Bft)
21.05.2006 16:00 16,9 C 49 % 1011 hPa W-SW 19,4 km/h (3 Bft)
21.05.2006 17:00 17,8 C 48 % 1010 hPa SW 17,4 km/h (3 Bft)
21.05.2006 18:00 17,5 C 47 % 1010 hPa SW 16,4 km/h (3 Bft)
21.05.2006 19:00 16,8 C 55 % 1010 hPa S-SW 12,0 km/h (2 Bft)
21.05.2006 20:00 15,3 C 64 % 1010 hPa S-SW 2,0 km/h (1 Bft)
21.05.2006 21:00 13,0 C 71 % 1010 hPa N 0,0 km/h (0 Bft)
21.05.2006 22:00 11,1 C 78 % 1010 hPa N 0,0 km/h (0 Bft)
21.05.2006 23:00 10,1 C 83 % 1009 hPa N 0,0 km/h (0 Bft)
Min-Datum _ 15.05.06 15.05.06 20.05.06 - 15.05.06
_ Min-Zeit 05:59 14:45 17:32 - 00:00
Minimum _ 6,4 C 34 % 1004 hPa - 0,0 km/h (0 Bft)
Max-Datum _ 17.05.06 15.05.06 15.05.06 - 20.05.06
_ Max-Zeit 16:59 05:40 00:00 - 19:23
Maximum _ 23,1 C 100 % 1021 hPa - 56,4 km/h
W-SW (7 Bft)
Durchschnitt _ 14,6 C 71 % 1015 hPa S-SW 11,7 km/h (2 Bft)

Durchschnitt Minimum Temp.14,1 C
Durchschnitt Maximum Temp.15,0 C